Aérodrome :
LOGIN :

S'inscrire | Disclaimer

   EN    FR    IT 

 










Légende :    VFR   VFR Marginal   IFR   IFR Intensif   IFR Très Intensif
Visi : 
Plafond : 
>= 8 km
>= 3000ft
5 à 8 km
1000 à 3000 ft
1500m à 5 km
500 à 1000 ft
800 à 1500m
200 à 500 ft
< 800m
< 200 ft
Symboles :   Orages  Brouillard  Fortes neiges  Fortes précipitations  Vent > 20 kt
SIGMETs :   Divers  Orages  Givrage  Turbulence  Onde Orograph.  Cendres Volcan.







- Altitude de l'aérodrome : 52 ft
- Code IATA : IOM
- Voir les cartes d'approche


EGNS - Isle of Man

DERNIER METAR :
  • 170920Z 25023G33KT 220V280 9999 FEW020 12/08 Q1012 NOSIG

METARs EXPIRÉS :
  • 170850Z 25023G35KT 210V280 9999 SCT020 12/07 Q1012 NOSIG
  • 170820Z 25024G34KT 220V290 9999 SCT020 12/08 Q1012 NOSIG
  • 170750Z 25025G35KT 220V280 9999 SCT020 12/07 Q1011 NOSIG
  • 170720Z 25025G35KT 210V280 9999 SCT020 12/07 Q1010 NOSIG
  • 170650Z 25024G38KT 220V280 9999 SCT020 BKN028 11/07 Q1010 NOSIG

TAF TAF EGNS
Valide du 17 à 06h jusqu'au 17 à 15h UTC


170500Z 1706/1715 25029G41KT 9999 SCT018 BKN040
BECMG 1709/1711 25022G32KT
BECMG 1713/1715 27015KT
Pas de NOTAMs connus pour ce terrain.
2 SIGMETs publiés pour la FIR London (EGTT) :
 
Onde orographique forte
EGTT SIGMET 05 VALID 170900/171100 EGRR
EGTT LONDON FIR SEV MTW FCST WI N5328 W00015 - N5229 W00431 - N5500 W00517 - N5500 W00100 - N5500 E00151 - N5328 W00015 FL040/200 STNR WKN=
Onde orographique forte
EGTT SIGMET 03 VALID 170500/170900 EGRR
EGTT LONDON FIR SEV MTW FCST WI N5220 W00530 - N5500 W00530 - N5500 E00115 - N5316 E00115 - N5124 W00259 - N5158 W00611 - N5220 W00530 FL030/200 MOV N 15KT WKN=



MET'MAP, la Météo Aéronautique d'un coup d'oeil ! - Copyright ORBIFLY Décembre 2007 - Disclaimer

ORBIFLY MET'MAP TEAM :

Programmation & Développement : Alexandra Zaïnal
Conception & Développement : Baudouin d'Aumeries
Co-Programmation & Développement : Marc-Olivier Méhu
Soutien technique & logistique : Manuel Goepfert

Contact : metmap@orbifly.com




SOURCES & CREDITS :

   NOAA